Time,TemperatureF,DewpointF,PressureIn,WindDirection,WindDirectionDegrees,WindSpeedMPH,WindSpeedGustMPH,Humidity,HourlyPrecipIn,Conditions,Clouds,dailyrainin,SoftwareType,DateUTC
2013-01-03 06:09:00,14.5,14.0,30.11,ENE,67,0.0,-999.0,98,-99.99,,,0.00,Acu-Link.com,2013-01-03 11:09:00,
2013-01-03 06:28:00,14.2,13.7,30.11,ENE,67,0.0,-999.0,98,-99.99,,,0.00,Acu-Link.com,2013-01-03 11:28:00,
2013-01-03 07:03:00,13.6,13.1,30.12,East,90,0.0,-999.0,98,-99.99,,,0.00,Acu-Link.com,2013-01-03 12:03:00,
2013-01-03 07:20:00,13.5,13.0,30.12,East,90,0.0,-999.0,98,-99.99,,,0.00,Acu-Link.com,2013-01-03 12:20:00,
2013-01-03 13:27:00,34.5,24.0,30.04,SW,225,3.2,-999.0,65,-99.99,,,0.00,Acu-Link.com,2013-01-03 18:27:00,
2013-01-03 13:44:00,34.5,24.0,30.05,West,270,3.2,-999.0,65,-99.99,,,0.00,Acu-Link.com,2013-01-03 18:44:00,
2013-01-03 13:59:00,35.2,24.6,30.04,West,270,5.8,-999.0,65,-99.99,,,0.00,Acu-Link.com,2013-01-03 18:59:00,
2013-01-03 15:10:00,36.5,24.7,30.04,WSW,247,8.3,-999.0,62,-99.99,,,0.00,Acu-Link.com,2013-01-03 20:10:00,
2013-01-03 15:27:00,36.5,24.3,30.05,West,270,3.7,-999.0,61,-99.99,,,0.00,Acu-Link.com,2013-01-03 20:27:00,
2013-01-03 15:43:00,36.5,24.3,30.05,West,270,3.2,-999.0,61,-99.99,,,0.00,Acu-Link.com,2013-01-03 20:43:00,
2013-01-03 15:59:00,36.3,24.5,30.05,West,270,3.7,-999.0,62,-99.99,,,0.01,Acu-Link.com,2013-01-03 20:59:00,
2013-01-03 16:16:00,36.0,24.3,30.05,SSW,202,4.2,-999.0,62,-99.99,,,0.01,Acu-Link.com,2013-01-03 21:16:00,
2013-01-03 16:31:00,35.4,24.8,30.05,South,180,3.7,-999.0,65,-99.99,,,0.01,Acu-Link.com,2013-01-03 21:31:00,
2013-01-03 16:50:00,33.8,24.0,30.05,West,270,4.2,-999.0,67,-99.99,,,0.01,Acu-Link.com,2013-01-03 21:50:00,
2013-01-03 17:05:00,32.9,23.9,30.05,WSW,247,0.0,-999.0,69,-99.99,,,0.01,Acu-Link.com,2013-01-03 22:05:00,
2013-01-03 17:20:00,32.0,24.0,30.06,SSW,202,0.0,-999.0,72,-99.99,,,0.01,Acu-Link.com,2013-01-03 22:20:00,
2013-01-03 17:35:00,31.5,23.9,30.06,West,270,2.2,-999.0,73,-99.99,,,0.01,Acu-Link.com,2013-01-03 22:35:00,
2013-01-03 17:51:00,31.3,24.0,30.06,SSW,202,2.2,-999.0,74,-99.99,,,0.01,Acu-Link.com,2013-01-03 22:51:00,
2013-01-03 18:06:00,30.7,24.0,30.07,South,180,5.3,-999.0,76,-99.99,,,0.01,Acu-Link.com,2013-01-03 23:06:00,
2013-01-03 18:21:00,31.1,23.8,30.08,SW,225,2.7,-999.0,74,-99.99,,,0.01,Acu-Link.com,2013-01-03 23:21:00,
2013-01-03 18:36:00,30.6,24.3,30.08,West,270,1.1,-999.0,77,-99.99,,,0.01,Acu-Link.com,2013-01-03 23:36:00,
2013-01-03 18:51:00,31.3,24.0,30.08,WSW,247,3.2,-999.0,74,-99.99,,,0.01,Acu-Link.com,2013-01-03 23:51:00,
2013-01-03 19:06:00,31.8,24.8,30.09,South,180,5.3,-999.0,75,-99.99,,,0.01,Acu-Link.com,2013-01-04 00:06:00,
2013-01-03 19:22:00,32.0,25.3,30.10,South,180,2.2,-999.0,76,-99.99,,,0.01,Acu-Link.com,2013-01-04 00:22:00,
2013-01-03 19:42:00,32.0,25.0,30.10,West,270,6.3,-999.0,75,-99.99,,,0.01,Acu-Link.com,2013-01-04 00:42:00,
2013-01-03 19:58:00,32.4,24.7,30.09,SW,225,2.7,-999.0,73,-99.99,,,0.01,Acu-Link.com,2013-01-04 00:58:00,
2013-01-03 20:13:00,32.2,24.2,30.10,WSW,247,5.3,-999.0,72,-99.99,,,0.01,Acu-Link.com,2013-01-04 01:13:00,
2013-01-03 20:34:00,32.0,24.0,30.09,WSW,247,6.8,-999.0,72,-99.99,,,0.01,Acu-Link.com,2013-01-04 01:34:00,
2013-01-03 20:49:00,31.8,23.8,30.10,South,180,4.2,-999.0,72,-99.99,,,0.01,Acu-Link.com,2013-01-04 01:49:00,
2013-01-03 21:04:00,31.6,24.0,30.09,SSW,202,2.2,-999.0,73,-99.99,,,0.01,Acu-Link.com,2013-01-04 02:04:00,
2013-01-03 21:29:00,31.6,23.3,30.10,West,270,4.7,-999.0,71,-99.99,,,0.01,Acu-Link.com,2013-01-04 02:29:00,
2013-01-03 21:44:00,31.8,22.8,30.10,West,270,5.8,-999.0,69,-99.99,,,0.01,Acu-Link.com,2013-01-04 02:44:00,
2013-01-03 22:02:00,31.6,23.3,30.11,West,270,7.8,-999.0,71,-99.99,,,0.01,Acu-Link.com,2013-01-04 03:02:00,
2013-01-03 22:17:00,31.5,22.2,30.10,SW,225,6.3,-999.0,68,-99.99,,,0.01,Acu-Link.com,2013-01-04 03:17:00,
2013-01-03 22:33:00,31.3,22.7,30.11,SW,225,4.7,-999.0,70,-99.99,,,0.01,Acu-Link.com,2013-01-04 03:33:00,
2013-01-03 22:48:00,31.3,22.7,30.11,WSW,247,4.7,-999.0,70,-99.99,,,0.01,Acu-Link.com,2013-01-04 03:48:00,
2013-01-03 23:39:00,30.0,23.1,30.12,West,270,5.3,-999.0,75,-99.99,,,0.01,Acu-Link.com,2013-01-04 04:39:00,